Time;durP1;ratioP1;P1;durP2;ratioP2;P2;SDS_P1;SDS_P2;PMS_P1;PMS_P2;Temp;Humidity;BMP_temperature;BMP_pressure;BME280_temperature;BME280_humidity;BME280_pressure;Samples;Min_cycle;Max_cycle;Signal;HPM_P1;HPM_P2
2022/07/16 00:03:32;;;;;;;2.40;2.20;;;;;;;29.85;41.90;96886.81;5076500;28;20498;-26
2022/07/16 00:05:57;;;;;;;3.72;2.33;;;;;;;29.94;41.72;96894.72;5076230;28;20029;-26
2022/07/16 00:08:23;;;;;;;2.85;2.55;;;;;;;29.83;41.86;96881.00;5075915;28;20543;-26
2022/07/16 00:10:48;;;;;;;3.03;2.20;;;;;;;29.90;42.05;96886.69;5076176;28;20057;-26
2022/07/16 00:13:14;;;;;;;2.15;1.95;;;;;;;29.81;41.98;96883.59;5076126;28;20044;-25
2022/07/16 00:15:39;;;;;;;2.35;2.13;;;;;;;29.82;42.37;96882.28;5074972;28;20044;-26
2022/07/16 00:20:49;;;;;;;2.80;2.30;;;;;;;29.85;42.68;96890.34;5075277;28;20028;-26
2022/07/16 00:23:15;;;;;;;3.72;2.30;;;;;;;29.80;42.39;96887.69;5075813;28;20024;-26
2022/07/16 00:25:40;;;;;;;3.05;2.50;;;;;;;29.86;42.18;96893.91;5075943;28;20024;-26
2022/07/16 00:28:06;;;;;;;5.18;2.83;;;;;;;29.72;42.45;96884.06;5075961;28;20048;-26
2022/07/16 00:30:31;;;;;;;2.78;2.17;;;;;;;29.79;42.36;96892.53;5075936;28;20385;-26
2022/07/16 00:32:56;;;;;;;3.13;2.63;;;;;;;29.75;42.30;96891.38;5075858;28;20025;-25
2022/07/16 00:35:22;;;;;;;4.47;2.33;;;;;;;29.81;42.15;96895.53;5075622;28;20378;-25
2022/07/16 00:37:47;;;;;;;4.40;2.83;;;;;;;29.78;42.35;96893.84;5075602;28;20043;-26
2022/07/16 00:40:13;;;;;;;5.00;2.55;;;;;;;29.78;42.22;96893.09;5075674;28;20028;-26
2022/07/16 00:42:38;;;;;;;4.80;2.47;;;;;;;29.73;42.38;96891.91;5075316;28;20036;-26
2022/07/16 00:45:04;;;;;;;3.85;2.30;;;;;;;29.78;42.64;96893.84;5075355;28;20108;-25
2022/07/16 00:47:30;;;;;;;3.33;2.40;;;;;;;29.79;42.41;96889.75;5075556;28;20397;-26
2022/07/16 00:49:56;;;;;;;2.83;2.13;;;;;;;29.74;42.60;96890.63;5075970;28;20024;-26
2022/07/16 00:52:22;;;;;;;4.07;2.33;;;;;;;29.76;42.67;96890.09;5075167;28;20024;-25
2022/07/16 00:54:48;;;;;;;2.90;2.40;;;;;;;29.75;42.46;96889.31;5075393;28;20028;-25
2022/07/16 00:57:13;;;;;;;3.38;2.30;;;;;;;29.67;42.49;96889.25;5075403;28;20032;-25
2022/07/16 00:59:39;;;;;;;3.70;2.40;;;;;;;29.78;42.68;96893.09;5075251;28;20028;-26
2022/07/16 01:02:06;;;;;;;2.58;2.38;;;;;;;29.86;42.29;96893.91;5074940;28;20392;-25
2022/07/16 01:04:33;;;;;;;3.42;2.58;;;;;;;29.77;42.83;96889.53;5075062;28;20040;-25
2022/07/16 01:06:59;;;;;;;2.67;2.45;;;;;;;29.73;42.81;96891.16;5074978;28;20486;-26
2022/07/16 01:09:26;;;;;;;3.08;2.20;;;;;;;29.74;42.78;96887.06;5074713;28;20086;-26
2022/07/16 01:11:52;;;;;;;2.92;2.10;;;;;;;29.76;42.62;96892.88;5074943;28;20415;-25
2022/07/16 01:14:18;;;;;;;3.38;2.10;;;;;;;29.85;42.54;96892.41;5075117;28;20386;-25
2022/07/16 01:16:45;;;;;;;4.05;2.45;;;;;;;29.79;42.69;96886.94;5074729;28;20028;-26
2022/07/16 01:19:12;;;;;;;3.63;2.70;;;;;;;29.69;42.54;96880.31;5074681;28;20492;-26
2022/07/16 01:21:38;;;;;;;3.05;2.38;;;;;;;29.72;42.21;96882.03;5074682;28;20375;-25
2022/07/16 01:24:04;;;;;;;2.75;2.40;;;;;;;29.76;42.94;96884.50;5074610;28;20055;-26
2022/07/16 01:26:30;;;;;;;4.10;2.28;;;;;;;29.76;42.38;96878.91;5074693;28;20037;-26
2022/07/16 01:28:55;;;;;;;2.33;2.13;;;;;;;29.77;42.52;96886.00;5074633;28;20024;-26
2022/07/16 01:31:21;;;;;;;2.50;2.30;;;;;;;29.75;42.35;96880.19;5073703;28;20067;-25
2022/07/16 01:34:24;;;;;;;2.70;2.50;;;;;;;29.72;42.29;96876.44;5074337;28;20074;-25
2022/07/16 01:36:32;;;;;;;2.35;2.15;;;;;;;29.75;42.57;96878.16;5074315;28;20094;-26
2022/07/16 01:38:57;;;;;;;2.70;2.50;;;;;;;29.80;42.50;96879.28;5074582;28;20458;-26
2022/07/16 01:41:23;;;;;;;2.97;2.78;;;;;;;29.74;42.19;96870.31;5074266;28;20031;-25
2022/07/16 01:43:48;;;;;;;2.53;2.33;;;;;;;29.71;42.61;96876.97;5074235;28;20028;-25
2022/07/16 01:46:13;;;;;;;3.08;2.10;;;;;;;29.75;42.36;96874.59;5074215;28;20043;-26
2022/07/16 01:48:39;;;;;;;2.30;2.10;;;;;;;29.83;42.02;96878.22;5074318;28;20024;-26
2022/07/16 01:51:04;;;;;;;2.35;2.15;;;;;;;29.73;42.54;96879.97;5074149;28;20048;-25
2022/07/16 01:53:30;;;;;;;3.10;2.42;;;;;;;29.69;42.08;96862.78;5074255;28;20029;-26
2022/07/16 01:55:56;;;;;;;3.42;2.47;;;;;;;29.77;42.26;96869.22;5073986;28;20075;-25
2022/07/16 01:58:22;;;;;;;3.30;2.10;;;;;;;29.76;42.50;96873.31;5072770;28;20154;-26
2022/07/16 02:00:48;;;;;;;2.55;2.35;;;;;;;29.71;42.21;96868.59;5073845;28;20103;-26
2022/07/16 02:03:14;;;;;;;2.25;2.15;;;;;;;29.78;42.42;96862.34;5073937;28;20024;-26
2022/07/16 02:05:40;;;;;;;3.75;2.20;;;;;;;29.71;42.44;96865.78;5073752;28;20035;-25
2022/07/16 02:08:06;;;;;;;2.65;2.42;;;;;;;29.77;42.26;96869.22;5073767;28;20024;-26
2022/07/16 02:10:32;;;;;;;3.00;2.60;;;;;;;29.78;42.04;96859.53;5073962;28;20467;-26
2022/07/16 02:12:58;;;;;;;3.65;2.30;;;;;;;29.76;42.25;96860.09;5073920;28;20036;-26
2022/07/16 02:15:24;;;;;;;2.22;2.03;;;;;;;29.71;42.29;96865.78;5073841;28;20029;-26
2022/07/16 02:17:49;;;;;;;2.83;2.10;;;;;;;29.74;42.12;96861.91;5073653;28;20020;-26
2022/07/16 02:20:15;;;;;;;3.15;2.35;;;;;;;29.80;42.40;96863.25;5073651;28;20508;-25
2022/07/16 02:22:40;;;;;;;2.88;2.25;;;;;;;29.72;42.22;96864.50;5073543;28;20047;-26
2022/07/16 02:25:08;;;;;;;3.13;2.20;;;;;;;29.74;42.10;96864.72;5073689;28;20063;-25
2022/07/16 02:27:34;;;;;;;2.50;2.30;;;;;;;29.79;41.79;96872.22;5073671;28;20089;-26
2022/07/16 02:29:59;;;;;;;2.42;2.25;;;;;;;29.76;41.87;96856.53;5073545;28;20095;-25
2022/07/16 02:32:27;;;;;;;2.53;2.33;;;;;;;29.77;41.96;96866.44;5073336;28;20074;-25
2022/07/16 02:34:52;;;;;;;2.45;2.25;;;;;;;29.75;41.66;96861.38;5073549;28;20481;-26
2022/07/16 02:37:18;;;;;;;2.38;2.17;;;;;;;29.72;42.14;96858.91;5073692;28;20028;-26
2022/07/16 02:39:43;;;;;;;3.63;2.47;;;;;;;29.71;42.31;96866.53;5073364;28;20032;-25
2022/07/16 02:42:09;;;;;;;3.17;2.47;;;;;;;29.67;42.20;96866.88;5073265;28;20048;-26
2022/07/16 02:44:34;;;;;;;2.97;2.35;;;;;;;29.70;42.15;96859.44;5073172;28;20029;-26
2022/07/16 02:47:00;;;;;;;5.00;2.38;;;;;;;29.73;42.13;96858.38;5073359;28;20028;-25
2022/07/16 02:49:25;;;;;;;2.42;2.20;;;;;;;29.74;42.01;96859.13;5071969;28;20032;-26
2022/07/16 02:51:51;;;;;;;2.55;2.35;;;;;;;29.69;42.09;96857.19;5073295;28;20069;-26
2022/07/16 02:54:16;;;;;;;2.63;2.40;;;;;;;29.67;42.07;96858.50;5073280;28;20120;-26
2022/07/16 02:56:42;;;;;;;4.03;2.85;;;;;;;29.71;41.88;96869.34;5073314;28;20070;-26
2022/07/16 02:59:07;;;;;;;3.22;2.35;;;;;;;29.65;42.34;96863.91;5073176;28;20021;-26
2022/07/16 03:01:33;;;;;;;2.70;2.50;;;;;;;29.65;42.20;96852.72;5072942;28;20432;-25
2022/07/16 03:03:59;;;;;;;2.45;2.25;;;;;;;29.67;41.93;96857.03;5073341;28;20024;-26
2022/07/16 03:06:24;;;;;;;2.53;2.33;;;;;;;29.64;42.26;96848.41;5073192;28;20099;-26
2022/07/16 03:08:50;;;;;;;2.72;2.40;;;;;;;29.61;42.43;96855.09;5072960;28;20060;-26
2022/07/16 03:11:16;;;;;;;2.28;2.08;;;;;;;29.62;42.37;96853.81;5073092;28;20069;-26
2022/07/16 03:13:41;;;;;;;2.83;2.47;;;;;;;29.67;41.99;96841.72;5072953;28;20032;-25
2022/07/16 03:16:07;;;;;;;2.85;2.20;;;;;;;29.64;42.06;96845.63;5072986;28;20099;-25
2022/07/16 03:18:33;;;;;;;2.42;2.22;;;;;;;29.65;42.28;96852.72;5073455;28;20032;-26
2022/07/16 03:20:58;;;;;;;2.80;2.30;;;;;;;29.62;42.31;96856.59;5072885;28;20048;-25
2022/07/16 03:23:24;;;;;;;4.55;2.30;;;;;;;29.62;42.33;96853.06;5073287;28;20032;-26
2022/07/16 03:25:49;;;;;;;4.47;2.47;;;;;;;29.62;42.20;96862.19;5073023;28;20082;-25
2022/07/16 03:28:15;;;;;;;3.85;2.05;;;;;;;29.59;42.09;96860.47;5073154;28;20085;-26
2022/07/16 03:30:40;;;;;;;3.42;2.38;;;;;;;29.60;42.58;96858.44;5072790;28;20394;-26
2022/07/16 03:33:06;;;;;;;5.43;2.75;;;;;;;29.58;42.37;96853.38;5072826;28;20092;-26
2022/07/16 03:35:32;;;;;;;2.80;2.47;;;;;;;29.60;42.45;96852.84;5072898;28;20029;-26
2022/07/16 03:40:42;;;;;;;3.42;2.38;;;;;;;29.57;42.48;96851.88;5073163;28;20086;-26
2022/07/16 03:43:08;;;;;;;4.50;2.83;;;;;;;29.59;42.32;96859.72;5072960;28;20032;-25
2022/07/16 03:45:33;;;;;;;4.10;2.95;;;;;;;29.58;42.45;96858.97;5072727;28;20047;-26
2022/07/16 03:47:59;;;;;;;3.83;2.40;;;;;;;29.55;42.61;96856.53;5072993;28;20025;-26
2022/07/16 03:50:24;;;;;;;4.70;2.20;;;;;;;29.53;42.64;96850.72;5072832;28;20028;-26
2022/07/16 03:52:56;;;;;;;3.95;3.13;;;;;;;29.55;42.33;96856.53;5072840;28;20016;-26
2022/07/16 03:55:21;;;;;;;2.97;2.60;;;;;;;29.54;42.33;96858.56;5073923;28;20020;-25
2022/07/16 03:57:47;;;;;;;2.45;2.25;;;;;;;29.49;42.77;96850.31;5076084;28;20027;-26
2022/07/16 04:00:13;;;;;;;3.00;2.75;;;;;;;29.50;42.73;96858.16;5076370;28;20154;-25
2022/07/16 04:02:39;;;;;;;2.50;2.25;;;;;;;29.52;42.54;96857.63;5076096;28;20029;-26
2022/07/16 04:05:05;;;;;;;3.65;2.50;;;;;;;29.50;42.51;96858.16;5074896;28;20478;-25
2022/07/16 04:07:30;;;;;;;2.95;2.58;;;;;;;29.55;42.19;96854.47;5075964;28;20029;-26
2022/07/16 04:09:56;;;;;;;2.83;2.58;;;;;;;29.53;42.62;96864.72;5076084;28;20056;-26
2022/07/16 04:12:23;;;;;;;3.00;2.70;;;;;;;29.52;42.41;96863.94;5075933;28;20044;-25
2022/07/16 04:14:49;;;;;;;4.20;3.00;;;;;;;29.50;42.56;96860.94;5076045;28;20103;-26
2022/07/16 04:17:14;;;;;;;3.78;2.50;;;;;;;29.50;42.43;96865.78;5075875;28;20024;-25
2022/07/16 04:19:40;;;;;;;4.65;2.60;;;;;;;29.46;42.54;96860.53;5075836;28;20027;-26
2022/07/16 04:22:05;;;;;;;2.85;2.65;;;;;;;29.49;42.57;96865.03;5075826;28;20045;-25
2022/07/16 04:24:31;;;;;;;3.00;2.65;;;;;;;29.47;42.68;96864.81;5075822;28;20390;-26
2022/07/16 04:26:56;;;;;;;3.47;2.95;;;;;;;29.45;42.88;96866.66;5082004;28;20028;-25
2022/07/16 04:29:22;;;;;;;3.05;2.75;;;;;;;29.41;42.63;96861.41;5092466;28;20024;-26
2022/07/16 04:31:47;;;;;;;3.30;2.63;;;;;;;29.43;42.81;96858.81;5093813;28;20040;-26
2022/07/16 04:34:13;;;;;;;3.03;2.72;;;;;;;29.47;42.87;96867.63;5093752;28;20039;-25
2022/07/16 04:36:38;;;;;;;2.70;2.40;;;;;;;29.43;42.76;96864.41;5093870;28;20489;-25
2022/07/16 04:39:04;;;;;;;3.05;2.53;;;;;;;29.42;42.52;96862.16;5093529;28;20024;-26
2022/07/16 04:41:29;;;;;;;3.17;2.70;;;;;;;29.46;42.55;96865.38;5092032;28;20034;-26
2022/07/16 04:43:55;;;;;;;3.13;2.83;;;;;;;29.42;42.85;96860.13;5093953;28;20060;-26
2022/07/16 04:46:20;;;;;;;4.43;2.95;;;;;;;29.41;42.74;96871.84;5093760;28;20026;-25
2022/07/16 04:48:46;;;;;;;3.00;2.70;;;;;;;29.45;42.51;96870.19;5093882;28;20035;-25
2022/07/16 04:51:11;;;;;;;3.95;2.83;;;;;;;29.44;42.96;96871.50;5093273;28;20484;-25
2022/07/16 04:53:37;;;;;;;3.85;2.58;;;;;;;29.44;42.80;96870.75;5093636;28;20043;-26
2022/07/16 04:56:03;;;;;;;4.45;2.60;;;;;;;29.47;42.59;96867.63;5093489;28;20034;-26
2022/07/16 04:58:29;;;;;;;3.72;2.63;;;;;;;29.43;42.91;96866.44;5093571;28;20107;-26
2022/07/16 05:00:54;;;;;;;3.35;2.65;;;;;;;29.46;43.08;96873.75;5093248;28;20515;-26
2022/07/16 05:03:22;;;;;;;4.13;2.53;;;;;;;29.42;43.21;96873.34;5093079;28;20016;-26
2022/07/16 05:05:49;;;;;;;3.17;2.88;;;;;;;29.40;43.32;96876.69;5093271;28;20036;-25
2022/07/16 05:08:14;;;;;;;3.30;2.97;;;;;;;29.40;43.06;96870.34;5092165;28;20070;-26
2022/07/16 05:10:40;;;;;;;3.28;2.92;;;;;;;29.47;43.03;96867.63;5093417;28;20032;-26
2022/07/16 05:13:06;;;;;;;3.38;2.72;;;;;;;29.43;43.26;96872.78;5093365;28;20032;-25
2022/07/16 05:15:32;;;;;;;3.38;2.90;;;;;;;29.44;43.42;96871.50;5092905;28;20485;-26
2022/07/16 05:17:57;;;;;;;3.53;3.22;;;;;;;29.41;43.48;96871.84;5093184;28;20127;-25
2022/07/16 05:20:23;;;;;;;3.67;3.00;;;;;;;29.40;43.40;96875.94;5093120;28;20035;-25
2022/07/16 05:22:48;;;;;;;4.90;2.65;;;;;;;29.36;43.66;96881.81;5092895;28;20019;-25
2022/07/16 05:25:15;;;;;;;4.22;3.15;;;;;;;29.43;43.33;96886.75;5092860;28;20051;-25
2022/07/16 05:27:41;;;;;;;3.97;3.05;;;;;;;29.36;43.74;96867.09;5092536;28;20513;-25
2022/07/16 05:30:09;;;;;;;6.68;3.13;;;;;;;29.40;43.82;96876.69;5092911;28;20110;-26
2022/07/16 05:32:34;;;;;;;2.97;2.78;;;;;;;29.42;43.77;96876.91;5092797;28;20077;-26
2022/07/16 05:35:00;;;;;;;4.28;3.15;;;;;;;29.39;43.46;96875.19;5092914;28;20028;-25
2022/07/16 05:37:26;;;;;;;3.45;2.67;;;;;;;29.41;43.95;96872.59;5092803;28;20027;-26
2022/07/16 05:39:51;;;;;;;3.33;2.80;;;;;;;29.42;44.21;96879.69;5090898;28;20028;-26
2022/07/16 05:42:17;;;;;;;4.68;2.90;;;;;;;29.37;43.65;96877.72;5092441;28;20070;-26
2022/07/16 05:44:42;;;;;;;3.10;2.80;;;;;;;29.42;43.65;96874.09;5092560;28;20023;-26
2022/07/16 05:47:07;;;;;;;3.15;2.95;;;;;;;29.38;43.71;96879.25;5092543;28;20508;-25
2022/07/16 05:49:34;;;;;;;4.35;3.30;;;;;;;29.41;43.50;96889.34;5092442;28;20071;-25
2022/07/16 05:51:59;;;;;;;2.83;2.47;;;;;;;29.39;43.38;96886.34;5092221;28;20039;-26
2022/07/16 05:54:25;;;;;;;2.85;2.60;;;;;;;29.40;43.48;96885.06;5092267;28;20520;-26
2022/07/16 05:56:50;;;;;;;2.95;2.70;;;;;;;29.39;43.25;96891.19;5092504;28;20100;-26
2022/07/16 05:59:16;;;;;;;3.50;3.20;;;;;;;29.38;43.66;96890.44;5092437;28;20060;-25
2022/07/16 06:01:41;;;;;;;3.13;2.90;;;;;;;29.37;43.36;96888.91;5092355;28;20015;-26
2022/07/16 06:04:07;;;;;;;3.42;3.13;;;;;;;29.37;43.32;96888.16;5091936;28;20078;-25
2022/07/16 06:06:33;;;;;;;3.55;2.65;;;;;;;29.40;43.33;96887.84;5092132;28;20039;-26
2022/07/16 06:08:58;;;;;;;3.30;2.80;;;;;;;29.37;43.46;96883.31;5091993;28;20135;-25
2022/07/16 06:11:24;;;;;;;3.65;2.90;;;;;;;29.37;43.24;96888.91;5092021;28;20020;-25
2022/07/16 06:13:49;;;;;;;3.08;2.60;;;;;;;29.39;43.34;96886.34;5091908;28;20016;-25
2022/07/16 06:16:15;;;;;;;2.95;2.70;;;;;;;29.40;43.07;96885.06;5091900;28;20035;-25
2022/07/16 06:18:42;;;;;;;3.53;3.05;;;;;;;29.39;43.10;96885.59;5091355;28;20139;-25
2022/07/16 06:21:07;;;;;;;3.22;2.92;;;;;;;29.35;43.02;96891.47;5091977;28;20099;-25
2022/07/16 06:23:33;;;;;;;3.60;2.70;;;;;;;29.38;42.93;96896.03;5091858;28;20028;-26
2022/07/16 06:25:58;;;;;;;2.60;2.40;;;;;;;29.34;42.74;96895.56;5091624;28;20500;-26
2022/07/16 06:28:24;;;;;;;3.75;2.90;;;;;;;28.72;44.11;96893.28;5091823;28;20027;-25
2022/07/16 06:30:49;;;;;;;4.63;2.60;;;;;;;28.06;44.80;96895.25;5091726;28;20060;-29
2022/07/16 06:33:15;;;;;;;6.30;2.78;;;;;;;28.56;43.18;96902.75;5091780;28;20081;-29
2022/07/16 06:35:40;;;;;;;3.03;2.70;;;;;;;28.83;42.92;96898.66;5091832;28;20050;-29
2022/07/16 06:38:06;;;;;;;3.40;2.70;;;;;;;29.01;42.64;96901.88;5091433;28;20024;-29
2022/07/16 06:40:31;;;;;;;4.15;2.90;;;;;;;29.09;42.43;96908.31;5089870;28;20019;-29
2022/07/16 06:42:57;;;;;;;4.43;2.72;;;;;;;29.07;41.97;96905.28;5091455;28;20426;-29
2022/07/16 06:45:23;;;;;;;3.30;2.80;;;;;;;29.09;42.26;96902.72;5091576;28;20028;-29
2022/07/16 06:47:48;;;;;;;4.43;2.70;;;;;;;29.13;42.25;96914.31;5091673;28;20027;-29
2022/07/16 06:50:14;;;;;;;2.63;2.42;;;;;;;29.10;42.18;96904.22;5091459;28;20374;-29
2022/07/16 06:52:40;;;;;;;3.55;2.53;;;;;;;28.99;42.32;96910.78;5091487;28;20031;-29
2022/07/16 06:55:06;;;;;;;2.78;2.55;;;;;;;29.00;42.15;96900.38;5091535;28;20036;-29
2022/07/16 06:57:32;;;;;;;3.00;2.80;;;;;;;29.06;42.18;96904.53;5091472;28;20085;-29
2022/07/16 06:59:58;;;;;;;4.57;2.60;;;;;;;29.04;42.22;96906.41;5091491;28;20401;-29
2022/07/16 07:02:23;;;;;;;4.95;2.72;;;;;;;28.89;42.41;96913.28;5090991;28;20366;-30
2022/07/16 07:04:49;;;;;;;2.83;2.60;;;;;;;28.97;42.08;96913.38;5091388;28;20039;-29
2022/07/16 07:07:15;;;;;;;2.70;2.50;;;;;;;28.93;42.12;96913.69;5091467;28;20028;-29
2022/07/16 07:09:40;;;;;;;3.72;2.80;;;;;;;29.01;42.05;96907.47;5091079;28;20119;-29
2022/07/16 07:12:06;;;;;;;3.20;2.67;;;;;;;28.88;42.04;96914.56;5091443;28;20055;-29
2022/07/16 07:14:32;;;;;;;5.18;2.90;;;;;;;28.94;41.87;96909.59;5091061;28;20024;-29
2022/07/16 07:16:57;;;;;;;3.15;2.65;;;;;;;28.87;41.94;96921.44;5091358;28;20039;-29
2022/07/16 07:19:22;;;;;;;3.65;2.70;;;;;;;28.87;41.82;96910.25;5091285;28;20047;-27
2022/07/16 07:21:48;;;;;;;3.47;2.60;;;;;;;28.88;41.75;96916.59;5086018;28;20029;-28
2022/07/16 07:24:14;;;;;;;3.78;2.63;;;;;;;28.93;41.66;96912.97;5072877;28;20039;-29
2022/07/16 07:26:39;;;;;;;3.20;2.60;;;;;;;29.00;41.59;96911.53;5070782;28;20025;-29
2022/07/16 07:29:05;;;;;;;3.13;2.63;;;;;;;29.00;41.49;96911.53;5070816;28;20056;-29
2022/07/16 07:31:30;;;;;;;2.88;2.67;;;;;;;29.00;41.72;96914.34;5074197;28;20078;-29
2022/07/16 07:33:56;;;;;;;3.05;2.75;;;;;;;29.03;41.65;96910.47;5074908;28;20028;-29
2022/07/16 07:36:21;;;;;;;3.08;2.58;;;;;;;29.01;41.55;96913.81;5074649;28;20131;-29
2022/07/16 07:38:47;;;;;;;3.22;2.63;;;;;;;28.86;41.73;96914.34;5074601;28;20036;-29
2022/07/16 07:41:12;;;;;;;3.38;2.55;;;;;;;28.89;41.78;96921.66;5071445;28;20023;-29
2022/07/16 07:43:38;;;;;;;2.80;2.50;;;;;;;29.01;41.56;96915.84;5074740;28;20033;-29
2022/07/16 07:46:03;;;;;;;6.35;2.67;;;;;;;29.04;41.70;96912.72;5074700;28;20027;-29
2022/07/16 07:48:29;;;;;;;3.30;2.55;;;;;;;28.97;41.54;96907.03;5074609;28;20494;-29
2022/07/16 07:50:54;;;;;;;4.13;2.80;;;;;;;29.02;41.27;96909.72;5074335;28;20032;-29
2022/07/16 07:53:19;;;;;;;2.60;2.40;;;;;;;29.00;41.67;96911.53;5074351;28;20025;-29
2022/07/16 07:55:45;;;;;;;2.97;2.78;;;;;;;28.97;41.53;96918.94;5074282;28;20462;-29
2022/07/16 07:58:10;;;;;;;4.53;2.55;;;;;;;28.94;41.62;96915.19;5074349;28;20024;-29
2022/07/16 08:00:36;;;;;;;3.83;2.60;;;;;;;28.81;41.75;96914.44;5074418;28;20876;-29
2022/07/16 08:03:02;;;;;;;4.75;3.22;;;;;;;28.87;41.33;96915.84;5073910;28;20032;-29
2022/07/16 08:05:27;;;;;;;2.85;2.53;;;;;;;28.85;41.73;96912.84;5074450;28;20040;-29
2022/07/16 08:07:53;;;;;;;2.97;2.72;;;;;;;28.78;41.95;96912.72;5074286;28;20028;-29
2022/07/16 08:10:19;;;;;;;2.90;2.60;;;;;;;28.76;41.65;96916.03;5074193;28;20056;-29
2022/07/16 08:12:45;;;;;;;3.13;2.83;;;;;;;28.78;41.75;96915.50;5074212;28;20070;-29
2022/07/16 08:15:11;;;;;;;5.15;2.70;;;;;;;28.81;41.66;96917.97;5073845;28;20028;-29
2022/07/16 08:17:37;;;;;;;4.60;2.90;;;;;;;28.88;41.41;96911.78;5073973;28;20562;-29
2022/07/16 08:20:04;;;;;;;4.03;2.70;;;;;;;28.83;41.50;96915.41;5074134;28;20044;-29
2022/07/16 08:22:29;;;;;;;3.55;2.83;;;;;;;28.68;41.90;96911.66;5073785;28;20567;-29
2022/07/16 08:27:39;;;;;;;2.85;2.65;;;;;;;28.99;41.14;96915.63;5073601;28;20031;-29
2022/07/16 08:30:05;;;;;;;4.13;2.55;;;;;;;28.89;41.43;96918.09;5074010;28;20032;-29
2022/07/16 08:32:31;;;;;;;4.85;2.60;;;;;;;28.79;41.10;96912.22;5073854;28;20024;-29
2022/07/16 08:34:56;;;;;;;4.32;2.80;;;;;;;28.87;41.29;96915.84;5073900;28;20036;-29
2022/07/16 08:37:40;;;;;;;2.72;2.40;;;;;;;28.87;41.18;96906.72;5073713;28;20036;-29
2022/07/16 08:40:08;;;;;;;5.57;2.65;;;;;;;28.98;41.02;96912.06;5070410;28;20058;-29
2022/07/16 08:42:35;;;;;;;2.70;2.50;;;;;;;29.02;41.10;96917.34;5073186;28;20028;-30
2022/07/16 08:45:03;;;;;;;2.60;2.40;;;;;;;29.01;41.08;96913.81;5072148;28;20382;-29
2022/07/16 08:47:30;;;;;;;3.25;2.42;;;;;;;28.84;40.67;96916.91;5073338;28;20390;-29
2022/07/16 08:50:00;;;;;;;3.05;2.75;;;;;;;28.97;40.67;96916.16;5073307;28;20081;-30
2022/07/16 08:52:28;;;;;;;2.90;2.65;;;;;;;28.97;40.99;96915.41;5073293;28;20013;-29
2022/07/16 08:54:55;;;;;;;3.35;2.97;;;;;;;28.94;41.04;96917.97;5073553;28;20509;-29
2022/07/16 08:57:22;;;;;;;4.05;2.92;;;;;;;28.91;41.02;96915.53;5073473;28;20027;-29
2022/07/16 08:59:49;;;;;;;3.10;2.60;;;;;;;29.01;40.90;96918.63;5073352;28;20029;-29
2022/07/16 09:02:15;;;;;;;3.25;2.95;;;;;;;28.99;40.88;96916.38;5073013;28;20021;-29
2022/07/16 09:04:44;;;;;;;2.80;2.55;;;;;;;28.99;40.78;96921.22;5073263;28;20398;-29
2022/07/16 09:07:14;;;;;;;4.40;2.97;;;;;;;29.03;40.85;96916.06;5073297;28;20478;-29
2022/07/16 09:09:40;;;;;;;4.57;2.42;;;;;;;29.01;41.05;96924.22;5072869;28;20072;-29
2022/07/16 09:12:05;;;;;;;3.45;2.35;;;;;;;28.83;41.02;96934.19;5073000;28;20043;-28
2022/07/16 09:14:31;;;;;;;3.55;2.45;;;;;;;28.88;40.91;96922.19;5072581;28;20466;-29
2022/07/16 09:16:56;;;;;;;3.55;2.70;;;;;;;28.82;40.83;96927.13;5072781;28;20032;-30
2022/07/16 09:19:28;;;;;;;5.65;2.80;;;;;;;28.83;39.69;96921.00;5072932;28;20367;-29
2022/07/16 09:22:10;;;;;;;4.23;2.70;;;;;;;28.91;39.42;96919.06;5071580;28;20374;-28
2022/07/16 09:24:53;;;;;;;4.33;2.90;;;;;;;29.00;40.24;96928.28;5072994;28;20074;-30
2022/07/16 09:27:24;;;;;;;3.22;2.80;;;;;;;28.97;40.36;96930.13;5072482;28;20043;-30
2022/07/16 09:29:58;;;;;;;3.90;3.10;;;;;;;28.85;40.37;96929.59;5072765;28;20036;-29
2022/07/16 09:32:28;;;;;;;2.85;2.60;;;;;;;28.98;40.20;96925.28;5071244;28;20020;-29
2022/07/16 09:35:11;;;;;;;2.75;2.50;;;;;;;28.93;40.31;96930.44;5072548;28;20047;-29
2022/07/16 09:37:48;;;;;;;4.72;3.03;;;;;;;28.87;40.54;96924.22;5072696;28;20020;-29
2022/07/16 09:40:27;;;;;;;3.10;2.40;;;;;;;28.84;40.07;96918.97;5070794;28;20094;-29
2022/07/16 09:42:53;;;;;;;3.60;2.72;;;;;;;28.84;39.46;96930.13;5072233;28;20028;-29
2022/07/16 09:45:20;;;;;;;4.00;2.90;;;;;;;28.77;40.27;96931.50;5072558;28;20032;-28
2022/07/16 09:47:46;;;;;;;4.47;2.63;;;;;;;28.89;39.97;96940.44;5072398;28;20047;-30
2022/07/16 09:50:12;;;;;;;4.03;2.60;;;;;;;28.89;39.84;96938.41;5072105;28;20083;-29
2022/07/16 09:52:38;;;;;;;3.45;2.70;;;;;;;28.69;39.98;96939.00;5071422;28;20036;-29
2022/07/16 09:55:04;;;;;;;4.20;2.70;;;;;;;28.88;39.80;96947.31;5072156;28;20025;-29
2022/07/16 09:57:30;;;;;;;3.03;2.53;;;;;;;29.00;39.71;96933.88;5072124;28;20024;-29
2022/07/16 09:59:57;;;;;;;3.47;3.15;;;;;;;28.76;40.19;96929.25;5072058;28;20020;-28
2022/07/16 10:02:23;;;;;;;2.95;2.70;;;;;;;28.89;39.79;96948.81;5070189;28;20389;-29
2022/07/16 10:04:49;;;;;;;5.97;3.13;;;;;;;28.83;39.48;96940.53;5072038;28;20376;-29
2022/07/16 10:07:17;;;;;;;4.90;2.78;;;;;;;28.94;39.21;96929.16;5071791;28;20028;-29
2022/07/16 10:09:43;;;;;;;4.75;2.50;;;;;;;28.73;39.48;96933.84;5071586;28;20055;-29
2022/07/16 10:12:14;;;;;;;4.03;2.70;;;;;;;28.89;39.18;96929.28;5071971;28;20025;-29
2022/07/16 10:14:42;;;;;;;4.22;2.75;;;;;;;28.91;38.87;96929.50;5071467;28;20029;-28
2022/07/16 10:17:21;;;;;;;4.25;2.35;;;;;;;28.87;38.84;96940.97;5071793;28;20050;-29
2022/07/16 10:20:05;;;;;;;2.60;2.40;;;;;;;28.88;39.12;96922.19;5071942;28;20493;-28
2022/07/16 10:22:30;;;;;;;3.25;2.95;;;;;;;28.80;39.14;96924.13;5071743;28;20382;-29
2022/07/16 10:24:57;;;;;;;2.72;2.53;;;;;;;28.97;38.90;96932.16;5071758;28;20028;-29
2022/07/16 10:27:30;;;;;;;2.60;2.30;;;;;;;28.93;38.52;96916.47;5071293;28;20023;-29
2022/07/16 10:30:14;;;;;;;5.15;2.70;;;;;;;28.94;38.58;96926.34;5071647;28;20039;-29
2022/07/16 10:33:12;;;;;;;2.85;2.65;;;;;;;28.91;38.49;96924.66;5071562;28;20028;-29
2022/07/16 10:35:45;;;;;;;3.65;3.08;;;;;;;29.00;38.27;96923.47;5071618;28;20032;-29
2022/07/16 10:38:25;;;;;;;3.88;2.95;;;;;;;29.03;38.03;96932.81;5071506;28;20025;-29
2022/07/16 10:41:15;;;;;;;4.80;2.75;;;;;;;29.00;37.76;96917.13;5069638;28;20024;-29
2022/07/16 10:43:42;;;;;;;3.28;2.50;;;;;;;29.02;37.86;96931.31;5071439;28;20429;-29
2022/07/16 10:46:10;;;;;;;2.72;2.50;;;;;;;29.07;37.56;96931.19;5071436;28;20024;-29
2022/07/16 10:48:38;;;;;;;9.65;3.00;;;;;;;29.05;37.46;96924.66;5071351;28;20103;-29
2022/07/16 10:51:10;;;;;;;4.63;2.97;;;;;;;29.13;37.40;96936.66;5071113;28;20031;-29
2022/07/16 10:53:57;;;;;;;2.70;2.50;;;;;;;29.01;37.11;96930.56;5071275;28;20478;-29
2022/07/16 10:56:46;;;;;;;3.42;2.88;;;;;;;29.07;37.06;96931.19;5071235;28;20151;-29
2022/07/16 10:59:13;;;;;;;3.50;3.20;;;;;;;29.07;37.13;96936.75;5071147;28;20098;-29
2022/07/16 11:01:41;;;;;;;2.58;2.38;;;;;;;28.99;37.32;96929.59;5081025;28;20056;-31
2022/07/16 11:04:08;;;;;;;5.93;2.90;;;;;;;28.93;37.11;96921.34;5076545;28;20028;-29
2022/07/16 11:06:34;;;;;;;3.17;2.58;;;;;;;28.99;37.34;96935.16;5079845;28;20020;-30
2022/07/16 11:09:01;;;;;;;5.75;2.47;;;;;;;28.78;37.92;96930.25;5079674;28;20052;-29
2022/07/16 11:11:33;;;;;;;4.22;2.90;;;;;;;28.95;37.62;96930.66;5080136;28;20020;-29
2022/07/16 11:13:59;;;;;;;5.25;2.78;;;;;;;29.07;37.44;96922.78;5079980;28;20024;-29
2022/07/16 11:16:25;;;;;;;5.22;2.65;;;;;;;29.07;37.59;96924.84;5079781;28;20031;-28
2022/07/16 11:18:51;;;;;;;3.22;2.53;;;;;;;28.91;37.78;96926.69;5079969;28;20119;-29
2022/07/16 11:21:16;;;;;;;2.95;2.60;;;;;;;28.85;38.04;96929.59;5079935;28;20486;-28
2022/07/16 11:23:54;;;;;;;3.10;2.50;;;;;;;29.00;37.82;96931.84;5079725;28;20034;-29
2022/07/16 11:26:21;;;;;;;3.53;2.47;;;;;;;28.89;37.95;96924.44;5079533;28;20111;-29
2022/07/16 11:28:58;;;;;;;2.97;2.67;;;;;;;28.94;37.99;96934.72;5079868;28;20098;-30
2022/07/16 11:31:27;;;;;;;2.65;2.42;;;;;;;29.05;37.67;96941.41;5079673;28;20107;-29
2022/07/16 11:33:56;;;;;;;2.63;2.42;;;;;;;28.98;37.67;96942.03;5079453;28;20078;-29
2022/07/16 11:36:26;;;;;;;6.07;2.63;;;;;;;29.15;37.39;96940.44;5079495;28;20106;-29
2022/07/16 11:38:57;;;;;;;3.00;2.80;;;;;;;29.13;37.59;96943.00;5079626;28;20470;-29
2022/07/16 11:41:22;;;;;;;2.90;2.60;;;;;;;29.14;37.50;96936.13;5079576;28;20024;-28
2022/07/16 11:43:48;;;;;;;3.05;2.50;;;;;;;29.13;37.47;96931.81;5079477;28;20420;-29